San Francisco, California
Traffic Map
Current Weather Conditions
San Francisco, California
Broken Clouds
Broken Clouds
21°
Feels Like: 21°
Wind Chill: 21° Ceiling: 5000
Heat Index: 21° Visibility: 10mi
Dew Point: 14° Wind: 14mph
Humidity: 65% Direction: 220° (SW)
Pressure: 30.07in Gusts: 0mph
Raw Report DataKSFO 252256Z 22012KT 10SM FEW030 SCT038 BKN050 21/14 A3007 RMK AO2 SLP181 T02110144 $
Traffic Incident Summary
Active as of:
Severity:
Category:
InformationThere was an issue retrieving the traffic information for this location. Please try a different location or try again shortly.
Advertisements
Track Severe Weather on mobile